sensor_id;sensor_type;location;lat;lon;timestamp;pressure;altitude;pressure_sealevel;temperature
69545;BMP180;56766;52.260;20.746;2023-02-28T00:01:33;101890.40;;;-3.30
69545;BMP180;56766;52.260;20.746;2023-02-28T00:04:00;101887.80;;;-3.32
69545;BMP180;56766;52.260;20.746;2023-02-28T00:06:28;101893.80;;;-3.40
69545;BMP180;56766;52.260;20.746;2023-02-28T00:08:55;101891.80;;;-3.40
69545;BMP180;56766;52.260;20.746;2023-02-28T00:11:22;101889.40;;;-3.50
69545;BMP180;56766;52.260;20.746;2023-02-28T00:13:49;101890.60;;;-3.50
69545;BMP180;56766;52.260;20.746;2023-02-28T00:16:20;101893.00;;;-3.56
69545;BMP180;56766;52.260;20.746;2023-02-28T00:18:51;101902.00;;;-3.60
69545;BMP180;56766;52.260;20.746;2023-02-28T00:21:20;101903.40;;;-3.66
69545;BMP180;56766;52.260;20.746;2023-02-28T00:23:47;101902.20;;;-3.70
69545;BMP180;56766;52.260;20.746;2023-02-28T00:26:14;101896.60;;;-3.78
69545;BMP180;56766;52.260;20.746;2023-02-28T00:28:40;101912.00;;;-3.80
69545;BMP180;56766;52.260;20.746;2023-02-28T00:31:07;101903.60;;;-3.80
69545;BMP180;56766;52.260;20.746;2023-02-28T00:33:34;101905.60;;;-3.86
69545;BMP180;56766;52.260;20.746;2023-02-28T00:36:07;101910.80;;;-3.90
69545;BMP180;56766;52.260;20.746;2023-02-28T00:38:34;101903.00;;;-3.90
69545;BMP180;56766;52.260;20.746;2023-02-28T00:41:01;101907.40;;;-3.90
69545;BMP180;56766;52.260;20.746;2023-02-28T00:43:37;101905.80;;;-3.90
69545;BMP180;56766;52.260;20.746;2023-02-28T00:46:05;101903.20;;;-3.90
69545;BMP180;56766;52.260;20.746;2023-02-28T00:48:32;101910.80;;;-3.90
69545;BMP180;56766;52.260;20.746;2023-02-28T00:51:00;101902.80;;;-3.98
69545;BMP180;56766;52.260;20.746;2023-02-28T00:53:28;101901.60;;;-4.00
69545;BMP180;56766;52.260;20.746;2023-02-28T00:55:54;101899.40;;;-4.04
69545;BMP180;56766;52.260;20.746;2023-02-28T00:58:21;101896.80;;;-4.12
69545;BMP180;56766;52.260;20.746;2023-02-28T01:00:48;101902.20;;;-4.20
69545;BMP180;56766;52.260;20.746;2023-02-28T01:03:17;101902.00;;;-4.30
69545;BMP180;56766;52.260;20.746;2023-02-28T01:05:46;101906.60;;;-4.30
69545;BMP180;56766;52.260;20.746;2023-02-28T01:08:14;101904.40;;;-4.30
69545;BMP180;56766;52.260;20.746;2023-02-28T01:10:42;101903.80;;;-4.30
69545;BMP180;56766;52.260;20.746;2023-02-28T01:13:10;101897.60;;;-4.40
69545;BMP180;56766;52.260;20.746;2023-02-28T01:15:41;101899.80;;;-4.40
69545;BMP180;56766;52.260;20.746;2023-02-28T01:18:09;101902.20;;;-4.40
69545;BMP180;56766;52.260;20.746;2023-02-28T01:20:38;101898.80;;;-4.48
69545;BMP180;56766;52.260;20.746;2023-02-28T01:23:04;101904.00;;;-4.56
69545;BMP180;56766;52.260;20.746;2023-02-28T01:25:35;101902.20;;;-4.68
69545;BMP180;56766;52.260;20.746;2023-02-28T01:28:02;101898.80;;;-4.70
69545;BMP180;56766;52.260;20.746;2023-02-28T01:30:30;101895.40;;;-4.80
69545;BMP180;56766;52.260;20.746;2023-02-28T01:32:56;101901.20;;;-4.80
69545;BMP180;56766;52.260;20.746;2023-02-28T01:35:23;101903.00;;;-4.90
69545;BMP180;56766;52.260;20.746;2023-02-28T01:37:50;101905.20;;;-4.90
69545;BMP180;56766;52.260;20.746;2023-02-28T01:40:17;101907.60;;;-4.92
69545;BMP180;56766;52.260;20.746;2023-02-28T01:42:43;101908.80;;;-5.00
69545;BMP180;56766;52.260;20.746;2023-02-28T01:45:28;101913.80;;;-5.00
69545;BMP180;56766;52.260;20.746;2023-02-28T01:48:07;101916.80;;;-5.10
69545;BMP180;56766;52.260;20.746;2023-02-28T01:50:42;101914.40;;;-5.10
69545;BMP180;56766;52.260;20.746;2023-02-28T01:53:17;101918.60;;;-5.00
69545;BMP180;56766;52.260;20.746;2023-02-28T01:55:52;101919.40;;;-5.04
69545;BMP180;56766;52.260;20.746;2023-02-28T01:58:21;101915.00;;;-5.10
69545;BMP180;56766;52.260;20.746;2023-02-28T02:00:48;101907.60;;;-5.10
69545;BMP180;56766;52.260;20.746;2023-02-28T02:03:19;101913.60;;;-5.10
69545;BMP180;56766;52.260;20.746;2023-02-28T02:05:46;101910.60;;;-5.20
69545;BMP180;56766;52.260;20.746;2023-02-28T02:08:21;101913.20;;;-5.20
69545;BMP180;56766;52.260;20.746;2023-02-28T02:10:55;101910.40;;;-5.20
69545;BMP180;56766;52.260;20.746;2023-02-28T02:19:02;101906.20;;;-5.30
69545;BMP180;56766;52.260;20.746;2023-02-28T02:36:42;101905.40;;;-5.40
69545;BMP180;56766;52.260;20.746;2023-02-28T02:45:40;101910.60;;;-5.50
69545;BMP180;56766;52.260;20.746;2023-02-28T02:48:14;101911.80;;;-5.56
69545;BMP180;56766;52.260;20.746;2023-02-28T02:50:52;101915.40;;;-5.60
69545;BMP180;56766;52.260;20.746;2023-02-28T02:53:40;101912.20;;;-5.66
69545;BMP180;56766;52.260;20.746;2023-02-28T02:56:12;101912.20;;;-5.60
69545;BMP180;56766;52.260;20.746;2023-02-28T02:58:44;101916.40;;;-5.60
69545;BMP180;56766;52.260;20.746;2023-02-28T03:01:21;101921.00;;;-5.66
69545;BMP180;56766;52.260;20.746;2023-02-28T03:04:04;101926.20;;;-5.70
69545;BMP180;56766;52.260;20.746;2023-02-28T03:06:32;101920.40;;;-5.70
69545;BMP180;56766;52.260;20.746;2023-02-28T03:09:00;101916.00;;;-5.70
69545;BMP180;56766;52.260;20.746;2023-02-28T03:11:28;101917.40;;;-5.70
69545;BMP180;56766;52.260;20.746;2023-02-28T03:14:49;101924.20;;;-5.62
69545;BMP180;56766;52.260;20.746;2023-02-28T03:17:58;101921.60;;;-5.60
69545;BMP180;56766;52.260;20.746;2023-02-28T03:23:38;101919.00;;;-5.60
69545;BMP180;56766;52.260;20.746;2023-02-28T03:26:21;101921.20;;;-5.60
69545;BMP180;56766;52.260;20.746;2023-02-28T03:29:15;101916.60;;;-5.60
69545;BMP180;56766;52.260;20.746;2023-02-28T03:35:12;101924.20;;;-5.60
69545;BMP180;56766;52.260;20.746;2023-02-28T03:37:44;101928.60;;;-5.60
69545;BMP180;56766;52.260;20.746;2023-02-28T03:40:19;101923.00;;;-5.60
69545;BMP180;56766;52.260;20.746;2023-02-28T03:42:56;101928.00;;;-5.70
69545;BMP180;56766;52.260;20.746;2023-02-28T03:45:30;101930.20;;;-5.70
69545;BMP180;56766;52.260;20.746;2023-02-28T03:48:19;101931.40;;;-5.72
69545;BMP180;56766;52.260;20.746;2023-02-28T03:50:54;101929.80;;;-5.80
69545;BMP180;56766;52.260;20.746;2023-02-28T03:53:32;101934.00;;;-5.80
69545;BMP180;56766;52.260;20.746;2023-02-28T03:56:32;101937.80;;;-5.80
69545;BMP180;56766;52.260;20.746;2023-02-28T03:59:52;101937.80;;;-5.80
69545;BMP180;56766;52.260;20.746;2023-02-28T04:02:20;101937.00;;;-5.80
69545;BMP180;56766;52.260;20.746;2023-02-28T04:04:47;101939.20;;;-5.80
69545;BMP180;56766;52.260;20.746;2023-02-28T04:07:16;101934.40;;;-5.70
69545;BMP180;56766;52.260;20.746;2023-02-28T04:09:43;101931.00;;;-5.70
69545;BMP180;56766;52.260;20.746;2023-02-28T04:12:10;101933.20;;;-5.80
69545;BMP180;56766;52.260;20.746;2023-02-28T04:14:37;101928.60;;;-5.90
69545;BMP180;56766;52.260;20.746;2023-02-28T04:17:04;101935.20;;;-5.90
69545;BMP180;56766;52.260;20.746;2023-02-28T04:19:30;101938.80;;;-5.90
69545;BMP180;56766;52.260;20.746;2023-02-28T04:21:57;101936.20;;;-5.90
69545;BMP180;56766;52.260;20.746;2023-02-28T04:24:27;101935.00;;;-5.90
69545;BMP180;56766;52.260;20.746;2023-02-28T04:26:56;101941.60;;;-5.92
69545;BMP180;56766;52.260;20.746;2023-02-28T04:29:31;101942.80;;;-5.90
69545;BMP180;56766;52.260;20.746;2023-02-28T04:32:02;101939.20;;;-5.90
69545;BMP180;56766;52.260;20.746;2023-02-28T04:34:31;101936.60;;;-6.00
69545;BMP180;56766;52.260;20.746;2023-02-28T04:36:59;101934.00;;;-6.10
69545;BMP180;56766;52.260;20.746;2023-02-28T04:39:26;101939.80;;;-6.10
69545;BMP180;56766;52.260;20.746;2023-02-28T04:41:53;101934.20;;;-6.10
69545;BMP180;56766;52.260;20.746;2023-02-28T04:44:20;101935.20;;;-6.10
69545;BMP180;56766;52.260;20.746;2023-02-28T04:46:49;101934.20;;;-6.10
69545;BMP180;56766;52.260;20.746;2023-02-28T04:49:16;101931.40;;;-6.00
69545;BMP180;56766;52.260;20.746;2023-02-28T04:51:43;101941.20;;;-6.02
69545;BMP180;56766;52.260;20.746;2023-02-28T04:54:10;101928.00;;;-6.02
69545;BMP180;56766;52.260;20.746;2023-02-28T04:56:36;101941.60;;;-6.10
69545;BMP180;56766;52.260;20.746;2023-02-28T04:59:03;101943.60;;;-6.10
69545;BMP180;56766;52.260;20.746;2023-02-28T05:01:34;101945.80;;;-6.10
69545;BMP180;56766;52.260;20.746;2023-02-28T05:04:03;101941.00;;;-6.10
69545;BMP180;56766;52.260;20.746;2023-02-28T05:06:34;101949.60;;;-6.20
69545;BMP180;56766;52.260;20.746;2023-02-28T05:09:01;101951.60;;;-6.24
69545;BMP180;56766;52.260;20.746;2023-02-28T05:11:34;101944.80;;;-6.30
69545;BMP180;56766;52.260;20.746;2023-02-28T05:14:09;101952.00;;;-6.30
69545;BMP180;56766;52.260;20.746;2023-02-28T05:16:37;101954.80;;;-6.40
69545;BMP180;56766;52.260;20.746;2023-02-28T05:19:03;101963.40;;;-6.40
69545;BMP180;56766;52.260;20.746;2023-02-28T05:21:49;101963.60;;;-6.50
69545;BMP180;56766;52.260;20.746;2023-02-28T05:24:16;101970.20;;;-6.50
69545;BMP180;56766;52.260;20.746;2023-02-28T05:26:52;101971.40;;;-6.50
69545;BMP180;56766;52.260;20.746;2023-02-28T05:29:20;101973.20;;;-6.52
69545;BMP180;56766;52.260;20.746;2023-02-28T05:31:47;101982.00;;;-6.50
69545;BMP180;56766;52.260;20.746;2023-02-28T05:34:14;101985.40;;;-6.50
69545;BMP180;56766;52.260;20.746;2023-02-28T05:36:42;101985.20;;;-6.50
69545;BMP180;56766;52.260;20.746;2023-02-28T05:39:10;101993.60;;;-6.40
69545;BMP180;56766;52.260;20.746;2023-02-28T05:41:43;101993.40;;;-6.40
69545;BMP180;56766;52.260;20.746;2023-02-28T05:44:10;101990.60;;;-6.40
69545;BMP180;56766;52.260;20.746;2023-02-28T05:46:37;101989.20;;;-6.40
69545;BMP180;56766;52.260;20.746;2023-02-28T05:49:04;101990.40;;;-6.40
69545;BMP180;56766;52.260;20.746;2023-02-28T05:51:31;101987.60;;;-6.38
69545;BMP180;56766;52.260;20.746;2023-02-28T05:54:00;101993.60;;;-6.30
69545;BMP180;56766;52.260;20.746;2023-02-28T05:56:28;101998.00;;;-6.28
69545;BMP180;56766;52.260;20.746;2023-02-28T05:58:55;102002.00;;;-6.20
69545;BMP180;56766;52.260;20.746;2023-02-28T06:03:51;102008.20;;;-6.00
69545;BMP180;56766;52.260;20.746;2023-02-28T06:06:17;102001.80;;;-6.00
69545;BMP180;56766;52.260;20.746;2023-02-28T06:08:44;102009.00;;;-5.90
69545;BMP180;56766;52.260;20.746;2023-02-28T06:11:12;102017.60;;;-5.80
69545;BMP180;56766;52.260;20.746;2023-02-28T06:13:39;102021.00;;;-5.70
69545;BMP180;56766;52.260;20.746;2023-02-28T06:16:07;102014.80;;;-5.70
69545;BMP180;56766;52.260;20.746;2023-02-28T06:18:34;102020.00;;;-5.70
69545;BMP180;56766;52.260;20.746;2023-02-28T06:21:01;102016.20;;;-5.60
69545;BMP180;56766;52.260;20.746;2023-02-28T06:23:27;102017.40;;;-5.50
69545;BMP180;56766;52.260;20.746;2023-02-28T06:25:54;102012.00;;;-5.42
69545;BMP180;56766;52.260;20.746;2023-02-28T06:28:25;102019.20;;;-5.40
69545;BMP180;56766;52.260;20.746;2023-02-28T06:30:52;102025.80;;;-5.30
69545;BMP180;56766;52.260;20.746;2023-02-28T06:33:19;102019.40;;;-5.20
69545;BMP180;56766;52.260;20.746;2023-02-28T06:35:53;102019.40;;;-5.10
69545;BMP180;56766;52.260;20.746;2023-02-28T06:38:19;102017.40;;;-4.90
69545;BMP180;56766;52.260;20.746;2023-02-28T06:40:54;102017.40;;;-4.70
69545;BMP180;56766;52.260;20.746;2023-02-28T06:43:23;102011.60;;;-4.50
69545;BMP180;56766;52.260;20.746;2023-02-28T06:45:50;102008.60;;;-4.34
69545;BMP180;56766;52.260;20.746;2023-02-28T06:48:20;102005.40;;;-4.20
69545;BMP180;56766;52.260;20.746;2023-02-28T06:50:46;102000.60;;;-4.00
69545;BMP180;56766;52.260;20.746;2023-02-28T06:53:13;102000.60;;;-3.86
69545;BMP180;56766;52.260;20.746;2023-02-28T06:55:41;101991.60;;;-3.70
69545;BMP180;56766;52.260;20.746;2023-02-28T06:58:08;101996.20;;;-3.50
69545;BMP180;56766;52.260;20.746;2023-02-28T07:00:45;101990.00;;;-3.30
69545;BMP180;56766;52.260;20.746;2023-02-28T07:03:16;101985.00;;;-3.10
69545;BMP180;56766;52.260;20.746;2023-02-28T07:05:45;101986.80;;;-2.90
69545;BMP180;56766;52.260;20.746;2023-02-28T07:08:12;101984.80;;;-2.70
69545;BMP180;56766;52.260;20.746;2023-02-28T07:10:39;101984.00;;;-2.50
69545;BMP180;56766;52.260;20.746;2023-02-28T07:13:08;101980.20;;;-2.30
69545;BMP180;56766;52.260;20.746;2023-02-28T07:15:37;101981.60;;;-2.10
69545;BMP180;56766;52.260;20.746;2023-02-28T07:18:04;101985.40;;;-1.90
69545;BMP180;56766;52.260;20.746;2023-02-28T07:20:31;101979.40;;;-1.70
69545;BMP180;56766;52.260;20.746;2023-02-28T07:22:57;101989.40;;;-1.50
69545;BMP180;56766;52.260;20.746;2023-02-28T07:25:27;101990.20;;;-1.28
69545;BMP180;56766;52.260;20.746;2023-02-28T07:27:56;101979.40;;;-1.10
69545;BMP180;56766;52.260;20.746;2023-02-28T07:30:23;101983.80;;;-0.90
69545;BMP180;56766;52.260;20.746;2023-02-28T07:32:49;101984.00;;;-0.68
69545;BMP180;56766;52.260;20.746;2023-02-28T07:35:16;101980.60;;;-0.44
69545;BMP180;56766;52.260;20.746;2023-02-28T07:37:43;101984.60;;;-0.30
69545;BMP180;56766;52.260;20.746;2023-02-28T07:40:11;101981.60;;;-0.10
69545;BMP180;56766;52.260;20.746;2023-02-28T07:42:40;101986.20;;;0.10
69545;BMP180;56766;52.260;20.746;2023-02-28T07:45:10;101981.20;;;0.30
69545;BMP180;56766;52.260;20.746;2023-02-28T07:47:38;101979.00;;;0.50
69545;BMP180;56766;52.260;20.746;2023-02-28T07:50:08;101976.20;;;0.60
69545;BMP180;56766;52.260;20.746;2023-02-28T07:52:37;101980.80;;;0.78
69545;BMP180;56766;52.260;20.746;2023-02-28T07:55:08;101983.20;;;0.90
69545;BMP180;56766;52.260;20.746;2023-02-28T07:57:36;101978.40;;;1.00
69545;BMP180;56766;52.260;20.746;2023-02-28T08:00:08;101981.60;;;1.20
69545;BMP180;56766;52.260;20.746;2023-02-28T08:02:39;101991.20;;;1.30
69545;BMP180;56766;52.260;20.746;2023-02-28T08:05:07;101987.20;;;1.40
69545;BMP180;56766;52.260;20.746;2023-02-28T08:07:34;101987.00;;;1.50
69545;BMP180;56766;52.260;20.746;2023-02-28T08:10:00;101984.40;;;1.70
69545;BMP180;56766;52.260;20.746;2023-02-28T08:12:27;101982.60;;;1.80
69545;BMP180;56766;52.260;20.746;2023-02-28T08:14:54;101981.80;;;2.00
69545;BMP180;56766;52.260;20.746;2023-02-28T08:17:21;101986.00;;;2.10
69545;BMP180;56766;52.260;20.746;2023-02-28T08:19:47;101982.20;;;2.20
69545;BMP180;56766;52.260;20.746;2023-02-28T08:22:14;101979.00;;;2.30
69545;BMP180;56766;52.260;20.746;2023-02-28T08:24:42;101976.40;;;2.40
69545;BMP180;56766;52.260;20.746;2023-02-28T08:27:10;101973.00;;;2.58
69545;BMP180;56766;52.260;20.746;2023-02-28T08:29:38;101972.20;;;2.60
69545;BMP180;56766;52.260;20.746;2023-02-28T08:32:06;101973.60;;;2.70
69545;BMP180;56766;52.260;20.746;2023-02-28T08:34:33;101972.80;;;2.80
69545;BMP180;56766;52.260;20.746;2023-02-28T08:37:00;101967.60;;;2.80
69545;BMP180;56766;52.260;20.746;2023-02-28T08:39:27;101968.40;;;2.82
69545;BMP180;56766;52.260;20.746;2023-02-28T08:41:53;101966.40;;;2.80
69545;BMP180;56766;52.260;20.746;2023-02-28T08:44:20;101965.00;;;2.80
69545;BMP180;56766;52.260;20.746;2023-02-28T08:46:47;101959.20;;;2.80
69545;BMP180;56766;52.260;20.746;2023-02-28T08:49:13;101966.60;;;2.90
69545;BMP180;56766;52.260;20.746;2023-02-28T08:51:40;101968.40;;;3.00
69545;BMP180;56766;52.260;20.746;2023-02-28T08:54:07;101967.80;;;3.00
69545;BMP180;56766;52.260;20.746;2023-02-28T08:56:34;101964.60;;;2.98
69545;BMP180;56766;52.260;20.746;2023-02-28T08:59:02;101966.40;;;3.00
69545;BMP180;56766;52.260;20.746;2023-02-28T09:01:30;101969.40;;;3.00
69545;BMP180;56766;52.260;20.746;2023-02-28T09:03:58;101975.60;;;3.02
69545;BMP180;56766;52.260;20.746;2023-02-28T09:06:27;101972.00;;;3.12
69545;BMP180;56766;52.260;20.746;2023-02-28T09:08:57;101967.80;;;3.20
69545;BMP180;56766;52.260;20.746;2023-02-28T09:11:25;101978.40;;;3.30
69545;BMP180;56766;52.260;20.746;2023-02-28T09:13:52;101975.80;;;3.40
69545;BMP180;56766;52.260;20.746;2023-02-28T09:16:19;101979.40;;;3.50
69545;BMP180;56766;52.260;20.746;2023-02-28T09:18:46;101976.20;;;3.60
69545;BMP180;56766;52.260;20.746;2023-02-28T09:21:17;101977.00;;;3.70
69545;BMP180;56766;52.260;20.746;2023-02-28T09:23:48;101984.80;;;3.72
69545;BMP180;56766;52.260;20.746;2023-02-28T09:26:23;101983.40;;;3.80
69545;BMP180;56766;52.260;20.746;2023-02-28T09:28:52;101983.60;;;3.90
69545;BMP180;56766;52.260;20.746;2023-02-28T09:31:27;101985.60;;;4.00
69545;BMP180;56766;52.260;20.746;2023-02-28T09:33:57;101984.20;;;4.00
69545;BMP180;56766;52.260;20.746;2023-02-28T09:36:26;101986.80;;;4.00
69545;BMP180;56766;52.260;20.746;2023-02-28T09:38:54;101979.20;;;4.10
69545;BMP180;56766;52.260;20.746;2023-02-28T09:41:25;101978.60;;;4.10
69545;BMP180;56766;52.260;20.746;2023-02-28T09:44:02;101976.40;;;4.20
69545;BMP180;56766;52.260;20.746;2023-02-28T09:46:41;101977.20;;;4.20
69545;BMP180;56766;52.260;20.746;2023-02-28T09:49:37;101975.60;;;4.24
69545;BMP180;56766;52.260;20.746;2023-02-28T09:52:28;101981.40;;;4.20
69545;BMP180;56766;52.260;20.746;2023-02-28T09:55:34;101976.80;;;4.22
69545;BMP180;56766;52.260;20.746;2023-02-28T09:58:01;101984.80;;;4.30
69545;BMP180;56766;52.260;20.746;2023-02-28T10:00:38;101979.40;;;4.30
69545;BMP180;56766;52.260;20.746;2023-02-28T10:04:04;101990.60;;;4.34
69545;BMP180;56766;52.260;20.746;2023-02-28T10:06:51;101982.40;;;4.40
69545;BMP180;56766;52.260;20.746;2023-02-28T10:09:25;101983.00;;;4.30
69545;BMP180;56766;52.260;20.746;2023-02-28T10:12:03;101982.60;;;4.30
69545;BMP180;56766;52.260;20.746;2023-02-28T10:14:34;101988.60;;;4.40
69545;BMP180;56766;52.260;20.746;2023-02-28T10:17:11;101983.20;;;4.50
69545;BMP180;56766;52.260;20.746;2023-02-28T10:20:09;101987.40;;;4.48
69545;BMP180;56766;52.260;20.746;2023-02-28T10:22:59;101982.20;;;4.44
69545;BMP180;56766;52.260;20.746;2023-02-28T10:25:29;101985.20;;;4.50
69545;BMP180;56766;52.260;20.746;2023-02-28T10:28:10;101983.60;;;4.52
69545;BMP180;56766;52.260;20.746;2023-02-28T10:30:51;101979.80;;;4.58
69545;BMP180;56766;52.260;20.746;2023-02-28T10:33:33;101978.60;;;4.60
69545;BMP180;56766;52.260;20.746;2023-02-28T10:36:02;101979.60;;;4.60
69545;BMP180;56766;52.260;20.746;2023-02-28T10:38:38;101976.40;;;4.60
69545;BMP180;56766;52.260;20.746;2023-02-28T10:44:19;101970.60;;;4.50
69545;BMP180;56766;52.260;20.746;2023-02-28T10:46:49;101971.80;;;4.50
69545;BMP180;56766;52.260;20.746;2023-02-28T10:52:00;101972.40;;;4.60
69545;BMP180;56766;52.260;20.746;2023-02-28T10:54:36;101968.20;;;4.70
69545;BMP180;56766;52.260;20.746;2023-02-28T10:57:22;101962.80;;;4.78
69545;BMP180;56766;52.260;20.746;2023-02-28T11:00:21;101959.00;;;4.80
69545;BMP180;56766;52.260;20.746;2023-02-28T11:02:49;101954.60;;;4.70
69545;BMP180;56766;52.260;20.746;2023-02-28T11:05:25;101954.20;;;4.70
69545;BMP180;56766;52.260;20.746;2023-02-28T11:08:06;101953.80;;;4.70
69545;BMP180;56766;52.260;20.746;2023-02-28T11:10:33;101951.60;;;4.70
69545;BMP180;56766;52.260;20.746;2023-02-28T11:13:02;101949.20;;;4.70
69545;BMP180;56766;52.260;20.746;2023-02-28T11:15:34;101949.00;;;4.80
69545;BMP180;56766;52.260;20.746;2023-02-28T11:18:30;101939.20;;;4.80
69545;BMP180;56766;52.260;20.746;2023-02-28T11:21:02;101938.40;;;4.80
69545;BMP180;56766;52.260;20.746;2023-02-28T11:23:34;101937.40;;;4.78
69545;BMP180;56766;52.260;20.746;2023-02-28T11:26:04;101932.20;;;4.70
69545;BMP180;56766;52.260;20.746;2023-02-28T11:28:42;101923.00;;;4.70
69545;BMP180;56766;52.260;20.746;2023-02-28T11:33:53;101925.00;;;4.70
69545;BMP180;56766;52.260;20.746;2023-02-28T11:36:32;101925.00;;;4.70
69545;BMP180;56766;52.260;20.746;2023-02-28T11:39:09;101920.40;;;4.70
69545;BMP180;56766;52.260;20.746;2023-02-28T11:42:03;101923.60;;;4.70
69545;BMP180;56766;52.260;20.746;2023-02-28T11:45:00;101919.60;;;4.80
69545;BMP180;56766;52.260;20.746;2023-02-28T11:50:37;101913.40;;;4.90
69545;BMP180;56766;52.260;20.746;2023-02-28T11:53:22;101912.60;;;4.90
69545;BMP180;56766;52.260;20.746;2023-02-28T11:56:12;101909.60;;;4.90
69545;BMP180;56766;52.260;20.746;2023-02-28T12:02:20;101902.20;;;4.80
69545;BMP180;56766;52.260;20.746;2023-02-28T12:06:16;101899.40;;;4.90
69545;BMP180;56766;52.260;20.746;2023-02-28T12:22:34;101886.60;;;4.88
69545;BMP180;56766;52.260;20.746;2023-02-28T12:27:40;101883.20;;;4.80
69545;BMP180;56766;52.260;20.746;2023-02-28T12:30:25;101884.20;;;4.80
69545;BMP180;56766;52.260;20.746;2023-02-28T12:33:13;101877.60;;;4.90
69545;BMP180;56766;52.260;20.746;2023-02-28T12:35:54;101872.60;;;4.90
69545;BMP180;56766;52.260;20.746;2023-02-28T12:38:43;101868.20;;;4.90
69545;BMP180;56766;52.260;20.746;2023-02-28T12:41:42;101868.20;;;4.90
69545;BMP180;56766;52.260;20.746;2023-02-28T12:44:47;101860.00;;;4.90
69545;BMP180;56766;52.260;20.746;2023-02-28T12:47:18;101856.40;;;4.90
69545;BMP180;56766;52.260;20.746;2023-02-28T12:49:56;101849.20;;;4.90
69545;BMP180;56766;52.260;20.746;2023-02-28T12:52:59;101849.60;;;4.90
69545;BMP180;56766;52.260;20.746;2023-02-28T12:59:01;101846.40;;;4.80
69545;BMP180;56766;52.260;20.746;2023-02-28T13:01:54;101847.40;;;4.80
69545;BMP180;56766;52.260;20.746;2023-02-28T13:04:57;101840.00;;;4.70
69545;BMP180;56766;52.260;20.746;2023-02-28T13:10:48;101840.40;;;4.60
69545;BMP180;56766;52.260;20.746;2023-02-28T13:13:28;101835.60;;;4.50
69545;BMP180;56766;52.260;20.746;2023-02-28T13:16:09;101832.00;;;4.50
69545;BMP180;56766;52.260;20.746;2023-02-28T13:18:46;101822.80;;;4.42
69545;BMP180;56766;52.260;20.746;2023-02-28T13:21:29;101823.00;;;4.40
69545;BMP180;56766;52.260;20.746;2023-02-28T13:24:04;101819.20;;;4.40
69545;BMP180;56766;52.260;20.746;2023-02-28T13:29:39;101818.20;;;4.40
69545;BMP180;56766;52.260;20.746;2023-02-28T13:35:12;101815.20;;;4.38
69545;BMP180;56766;52.260;20.746;2023-02-28T13:37:43;101812.60;;;4.30
69545;BMP180;56766;52.260;20.746;2023-02-28T13:42:47;101801.60;;;4.20
69545;BMP180;56766;52.260;20.746;2023-02-28T13:45:30;101804.20;;;4.20
69545;BMP180;56766;52.260;20.746;2023-02-28T13:48:16;101801.40;;;4.20
69545;BMP180;56766;52.260;20.746;2023-02-28T13:50:45;101799.20;;;4.20
69545;BMP180;56766;52.260;20.746;2023-02-28T13:56:03;101790.40;;;4.10
69545;BMP180;56766;52.260;20.746;2023-02-28T14:01:51;101790.40;;;4.00
69545;BMP180;56766;52.260;20.746;2023-02-28T14:04:58;101786.60;;;3.90
69545;BMP180;56766;52.260;20.746;2023-02-28T14:07:38;101781.20;;;3.90
69545;BMP180;56766;52.260;20.746;2023-02-28T14:15:58;101772.40;;;3.70
69545;BMP180;56766;52.260;20.746;2023-02-28T14:18:34;101772.20;;;3.70
69545;BMP180;56766;52.260;20.746;2023-02-28T14:21:25;101765.20;;;3.70
69545;BMP180;56766;52.260;20.746;2023-02-28T14:24:31;101768.00;;;3.68
69545;BMP180;56766;52.260;20.746;2023-02-28T14:27:11;101766.40;;;3.60
69545;BMP180;56766;52.260;20.746;2023-02-28T14:29:54;101767.40;;;3.60
69545;BMP180;56766;52.260;20.746;2023-02-28T14:32:50;101766.40;;;3.50
69545;BMP180;56766;52.260;20.746;2023-02-28T14:36:02;101764.60;;;3.50
69545;BMP180;56766;52.260;20.746;2023-02-28T14:38:57;101759.80;;;3.40
69545;BMP180;56766;52.260;20.746;2023-02-28T14:41:38;101755.00;;;3.40
69545;BMP180;56766;52.260;20.746;2023-02-28T14:44:22;101755.20;;;3.30
69545;BMP180;56766;52.260;20.746;2023-02-28T14:46:59;101760.00;;;3.20
69545;BMP180;56766;52.260;20.746;2023-02-28T14:49:42;101754.40;;;3.20
69545;BMP180;56766;52.260;20.746;2023-02-28T14:54:38;101755.80;;;3.00
69545;BMP180;56766;52.260;20.746;2023-02-28T14:57:06;101757.60;;;2.96
69545;BMP180;56766;52.260;20.746;2023-02-28T14:59:35;101762.00;;;2.90
69545;BMP180;56766;52.260;20.746;2023-02-28T15:02:22;101758.40;;;2.80
69545;BMP180;56766;52.260;20.746;2023-02-28T15:05:00;101751.40;;;2.76
69545;BMP180;56766;52.260;20.746;2023-02-28T15:07:27;101754.80;;;2.70
69545;BMP180;56766;52.260;20.746;2023-02-28T15:10:21;101755.20;;;2.60
69545;BMP180;56766;52.260;20.746;2023-02-28T15:12:56;101752.60;;;2.52
69545;BMP180;56766;52.260;20.746;2023-02-28T15:18:47;101752.20;;;2.40
69545;BMP180;56766;52.260;20.746;2023-02-28T15:21:21;101752.00;;;2.30
69545;BMP180;56766;52.260;20.746;2023-02-28T15:24:02;101751.00;;;2.20
69545;BMP180;56766;52.260;20.746;2023-02-28T15:26:38;101758.00;;;2.10
69545;BMP180;56766;52.260;20.746;2023-02-28T15:29:17;101756.00;;;2.04
69545;BMP180;56766;52.260;20.746;2023-02-28T15:31:53;101764.20;;;2.00
69545;BMP180;56766;52.260;20.746;2023-02-28T15:34:33;101767.00;;;1.90
69545;BMP180;56766;52.260;20.746;2023-02-28T15:37:01;101763.40;;;1.80
69545;BMP180;56766;52.260;20.746;2023-02-28T15:39:43;101757.60;;;1.70
69545;BMP180;56766;52.260;20.746;2023-02-28T15:42:18;101763.20;;;1.60
69545;BMP180;56766;52.260;20.746;2023-02-28T15:44:45;101758.20;;;1.50
69545;BMP180;56766;52.260;20.746;2023-02-28T15:47:22;101761.20;;;1.40
69545;BMP180;56766;52.260;20.746;2023-02-28T15:50:08;101759.80;;;1.30
69545;BMP180;56766;52.260;20.746;2023-02-28T15:52:42;101759.80;;;1.16
69545;BMP180;56766;52.260;20.746;2023-02-28T15:55:29;101763.20;;;1.04
69545;BMP180;56766;52.260;20.746;2023-02-28T15:58:01;101762.20;;;0.90
69545;BMP180;56766;52.260;20.746;2023-02-28T16:00:31;101761.20;;;0.80
69545;BMP180;56766;52.260;20.746;2023-02-28T16:02:59;101762.60;;;0.72
69545;BMP180;56766;52.260;20.746;2023-02-28T16:05:30;101761.80;;;0.70
69545;BMP180;56766;52.260;20.746;2023-02-28T16:08:14;101763.80;;;0.60
69545;BMP180;56766;52.260;20.746;2023-02-28T16:10:41;101766.20;;;0.50